East Blackstone, Massachusetts
Current Conditions -  °F | °C
As of 5:15 PM on Sunday 23 Nov 2014 (Local Time) from KSFZ Reporting Station
Clear Clear  
Wind Chill: 46°   Ceiling: Unl
Heat Index: 48°   Visibility: 10mi
Dew Point: 28°   Wind: 5mph
Humidity: 46%   Direction: 200°SSW
Pressure: 30.12"   Gusts: NA
Location:  42.0416°N, 71.5423°W
Report Text: KSFZ 232215Z 20004KT 10SM CLR 09/M02 A3012 RMK AO1
Loading
Personal Weather Stations






























Interactive Weather Map New forecast layout! Learn more

10-Day Weather Forecast

Advertisements
Track Severe Weather on mobile